createdAt,value
2018-07-23T00:01:25.505Z,5.47
2018-07-23T00:03:53.600Z,5.43
2018-07-23T00:06:22.091Z,7.30
2018-07-23T00:08:50.536Z,8.13
2018-07-23T00:11:18.996Z,5.97
2018-07-23T00:13:47.417Z,6.40
2018-07-23T00:16:15.853Z,6.40
2018-07-23T00:18:44.305Z,6.57
2018-07-23T00:21:12.827Z,8.77
2018-07-23T00:23:41.272Z,7.30
2018-07-23T00:26:09.759Z,8.87
2018-07-23T00:28:38.240Z,7.60
2018-07-23T00:31:06.774Z,7.17
2018-07-23T00:33:35.257Z,7.43
2018-07-23T00:36:03.728Z,17.13
2018-07-23T00:38:32.193Z,7.63
2018-07-23T00:41:00.631Z,6.80
2018-07-23T00:43:29.136Z,7.33
2018-07-23T00:45:57.580Z,8.53
2018-07-23T00:48:26.210Z,7.10
2018-07-23T00:50:54.344Z,8.03
2018-07-23T00:53:22.848Z,9.13
2018-07-23T00:55:51.296Z,7.73
2018-07-23T00:58:19.738Z,7.53
2018-07-23T01:00:48.164Z,7.53
2018-07-23T01:03:16.656Z,7.53
2018-07-23T01:05:45.075Z,7.30
2018-07-23T01:08:13.610Z,7.73
2018-07-23T01:10:42.081Z,7.00
2018-07-23T01:13:10.594Z,8.43
2018-07-23T01:15:39.036Z,9.50
2018-07-23T01:18:07.528Z,7.33
2018-07-23T01:20:36.029Z,8.27
2018-07-23T01:23:04.159Z,8.50
2018-07-23T01:25:32.624Z,8.03
2018-07-23T01:28:01.114Z,8.80
2018-07-23T01:30:29.652Z,9.07
2018-07-23T01:32:58.120Z,11.00
2018-07-23T01:35:26.536Z,9.43
2018-07-23T01:37:55.029Z,9.33
2018-07-23T01:40:24.345Z,9.67
2018-07-23T01:42:52.857Z,10.23
2018-07-23T01:45:21.308Z,9.83
2018-07-23T01:47:49.816Z,9.83
2018-07-23T01:50:18.288Z,11.00
2018-07-23T01:52:46.760Z,10.00
2018-07-23T01:55:15.200Z,12.17
2018-07-23T01:57:43.669Z,10.17
2018-07-23T02:00:12.112Z,10.30
2018-07-23T02:02:40.544Z,10.43
2018-07-23T02:05:09.012Z,11.57
2018-07-23T02:07:37.465Z,11.67
2018-07-23T02:10:05.933Z,14.20
2018-07-23T02:12:34.393Z,13.40
2018-07-23T02:15:02.827Z,11.43
2018-07-23T02:17:31.300Z,10.30
2018-07-23T02:19:59.792Z,11.30
2018-07-23T02:22:28.243Z,12.47
2018-07-23T02:24:56.674Z,10.97
2018-07-23T02:27:25.196Z,9.80
2018-07-23T02:29:59.992Z,11.27
2018-07-23T02:32:28.469Z,9.80
2018-07-23T02:34:56.909Z,9.97
2018-07-23T02:37:25.489Z,13.13
2018-07-23T02:39:53.938Z,10.73
2018-07-23T02:42:22.427Z,12.87
2018-07-23T02:44:50.897Z,10.43
2018-07-23T02:47:19.365Z,11.80
2018-07-23T02:49:47.813Z,10.47
2018-07-23T02:52:16.261Z,10.30
2018-07-23T02:54:45.356Z,11.47
2018-07-23T02:57:13.820Z,10.70
2018-07-23T02:59:42.337Z,12.27
2018-07-23T03:02:10.793Z,10.00
2018-07-23T03:04:39.264Z,11.27
2018-07-23T03:07:07.776Z,11.43
2018-07-23T03:09:36.209Z,13.23
2018-07-23T03:12:04.696Z,9.80
2018-07-23T03:14:33.201Z,10.33
2018-07-23T03:17:01.709Z,12.20
2018-07-23T03:19:30.185Z,11.03
2018-07-23T03:21:58.667Z,9.77
2018-07-23T03:24:27.179Z,10.83
2018-07-23T03:26:55.604Z,10.00
2018-07-23T03:29:24.092Z,12.40
2018-07-23T03:31:52.545Z,11.17
2018-07-23T03:34:21.063Z,10.63
2018-07-23T03:36:49.524Z,11.63
2018-07-23T03:39:18.022Z,11.97
2018-07-23T03:41:46.473Z,12.83
2018-07-23T03:44:14.948Z,12.93
2018-07-23T03:46:43.401Z,12.17
2018-07-23T03:49:11.886Z,12.97
2018-07-23T03:51:40.372Z,13.30
2018-07-23T03:54:08.904Z,14.03
2018-07-23T03:56:37.434Z,12.43
2018-07-23T03:59:05.916Z,13.00
2018-07-23T04:01:34.356Z,12.57
2018-07-23T04:04:02.821Z,12.00
2018-07-23T04:06:31.280Z,11.30
2018-07-23T04:08:59.840Z,12.10
2018-07-23T04:11:28.295Z,12.27
2018-07-23T04:13:56.801Z,13.60
2018-07-23T04:16:25.261Z,12.27
2018-07-23T04:18:53.736Z,12.07
2018-07-23T04:21:22.192Z,11.03
2018-07-23T04:23:51.369Z,11.10
2018-07-23T04:26:19.988Z,11.33
2018-07-23T04:28:48.477Z,12.83
2018-07-23T04:31:16.973Z,12.03
2018-07-23T04:33:45.448Z,11.87
2018-07-23T04:36:13.921Z,14.73
2018-07-23T04:38:42.716Z,10.97
2018-07-23T04:41:11.220Z,13.20
2018-07-23T04:43:39.674Z,11.30
2018-07-23T04:46:08.179Z,10.67
2018-07-23T04:48:36.820Z,12.27
2018-07-23T04:51:05.318Z,12.30
2018-07-23T04:53:33.790Z,11.43
2018-07-23T04:56:02.449Z,12.40
2018-07-23T04:58:30.884Z,13.23
2018-07-23T05:00:59.360Z,14.40
2018-07-23T05:03:27.804Z,13.37
2018-07-23T05:05:56.325Z,11.07
2018-07-23T05:08:24.872Z,13.40
2018-07-23T05:10:53.305Z,11.50
2018-07-23T05:13:21.772Z,9.87
2018-07-23T05:15:50.289Z,14.07
2018-07-23T05:18:18.793Z,14.10
2018-07-23T05:20:47.276Z,11.67
2018-07-23T05:23:15.749Z,10.43
2018-07-23T05:25:44.192Z,11.27
2018-07-23T05:28:12.652Z,12.70
2018-07-23T05:30:41.084Z,12.87
2018-07-23T05:33:09.544Z,10.27
2018-07-23T05:35:38.040Z,13.63
2018-07-23T05:38:06.499Z,12.40
2018-07-23T05:40:34.940Z,14.43
2018-07-23T05:43:03.449Z,11.13
2018-07-23T05:45:31.989Z,16.97
2018-07-23T05:48:01.157Z,11.50
2018-07-23T05:50:36.180Z,16.70
2018-07-23T05:53:04.668Z,12.77
2018-07-23T05:55:32.832Z,12.20
2018-07-23T05:58:01.301Z,15.53
2018-07-23T06:00:29.773Z,15.13
2018-07-23T06:02:58.576Z,18.70
2018-07-23T06:05:27.160Z,12.57
2018-07-23T06:07:55.604Z,15.43
2018-07-23T06:10:24.353Z,13.73
2018-07-23T06:12:53.148Z,11.30
2018-07-23T06:15:21.606Z,13.57
2018-07-23T06:17:50.129Z,11.70
2018-07-23T06:20:19.200Z,14.47
2018-07-23T06:22:47.668Z,11.93
2018-07-23T06:25:16.160Z,15.03
2018-07-23T06:27:44.630Z,15.47
2018-07-23T06:30:13.160Z,12.70
2018-07-23T06:32:41.614Z,14.47
2018-07-23T06:35:10.129Z,13.70
2018-07-23T06:37:38.648Z,11.20
2018-07-23T06:40:08.216Z,14.50
2018-07-23T06:42:36.692Z,12.20
2018-07-23T06:45:05.205Z,14.27
2018-07-23T06:47:33.648Z,11.47
2018-07-23T06:50:02.150Z,14.50
2018-07-23T06:52:30.566Z,11.17
2018-07-23T06:54:59.056Z,12.83
2018-07-23T06:57:27.539Z,15.37
2018-07-23T06:59:56.000Z,11.30
2018-07-23T07:02:24.448Z,11.10
2018-07-23T07:04:52.920Z,15.20
2018-07-23T07:07:21.345Z,11.37
2018-07-23T07:09:49.808Z,13.73
2018-07-23T07:12:18.289Z,16.13
2018-07-23T07:14:46.728Z,11.17
2018-07-23T07:17:15.156Z,10.57
2018-07-23T07:19:43.658Z,13.93
2018-07-23T07:22:12.160Z,12.40
2018-07-23T07:24:40.625Z,10.90
2018-07-23T07:27:09.072Z,11.97
2018-07-23T07:29:37.573Z,11.77
2018-07-23T07:32:06.272Z,10.60
2018-07-23T07:34:34.753Z,9.60
2018-07-23T07:37:03.252Z,10.57
2018-07-23T07:39:31.703Z,10.97
2018-07-23T07:42:00.128Z,10.70
2018-07-23T07:44:28.801Z,9.13
2018-07-23T07:46:57.246Z,11.43
2018-07-23T07:49:25.817Z,8.83
2018-07-23T07:51:54.292Z,8.80
2018-07-23T07:54:22.779Z,10.07
2018-07-23T07:56:51.260Z,9.67
2018-07-23T07:59:19.876Z,8.67
2018-07-23T08:01:48.252Z,9.10
2018-07-23T08:04:16.760Z,7.43
2018-07-23T08:06:45.224Z,9.80
2018-07-23T08:09:13.705Z,8.53
2018-07-23T08:11:42.732Z,9.47
2018-07-23T08:14:11.164Z,9.77
2018-07-23T08:16:39.626Z,9.63
2018-07-23T08:19:08.111Z,10.47
2018-07-23T08:21:36.688Z,7.77
2018-07-23T08:24:05.165Z,7.80
2018-07-23T08:26:34.540Z,9.57
2018-07-23T08:29:03.057Z,8.17
2018-07-23T08:31:31.525Z,9.77
2018-07-23T08:34:00.108Z,7.73
2018-07-23T08:36:28.712Z,8.47
2018-07-23T08:38:57.145Z,8.30
2018-07-23T08:41:25.688Z,8.43
2018-07-23T08:43:54.132Z,8.43
2018-07-23T08:46:22.656Z,8.50
2018-07-23T08:48:51.092Z,9.03
2018-07-23T08:51:19.539Z,8.07
2018-07-23T08:53:47.962Z,7.93
2018-07-23T08:56:16.478Z,8.57
2018-07-23T08:58:44.933Z,8.77
2018-07-23T09:01:13.364Z,7.97
2018-07-23T09:03:41.804Z,8.07
2018-07-23T09:06:10.232Z,7.57
2018-07-23T09:08:38.724Z,6.97
2018-07-23T09:11:07.202Z,8.47
2018-07-23T09:13:35.681Z,7.10
2018-07-23T09:16:05.043Z,7.57
2018-07-23T09:18:33.504Z,10.07
2018-07-23T09:21:01.946Z,9.70
2018-07-23T09:23:30.444Z,8.90
2018-07-23T09:25:58.868Z,9.97
2018-07-23T09:28:27.301Z,12.20
2018-07-23T09:30:56.284Z,8.73
2018-07-23T09:33:25.489Z,8.77
2018-07-23T09:35:54.369Z,10.03
2018-07-23T09:38:23.376Z,7.60
2018-07-23T09:40:52.453Z,8.77
2018-07-23T09:43:21.640Z,11.73
2018-07-23T09:45:50.073Z,13.67
2018-07-23T09:48:18.504Z,8.13
2018-07-23T09:50:46.957Z,8.53
2018-07-23T09:53:15.396Z,11.77
2018-07-23T09:55:43.819Z,7.30
2018-07-23T09:58:12.256Z,8.60
2018-07-23T10:00:45.936Z,11.13
2018-07-23T10:03:14.512Z,10.63
2018-07-23T10:05:42.804Z,7.67
2018-07-23T10:08:10.920Z,6.20
2018-07-23T10:10:39.392Z,6.40
2018-07-23T10:13:07.937Z,10.07
2018-07-23T10:15:36.345Z,7.83
2018-07-23T10:18:04.828Z,7.77
2018-07-23T10:20:33.264Z,9.63
2018-07-23T10:23:01.711Z,5.70
2018-07-23T10:25:30.120Z,7.23
2018-07-23T10:27:58.556Z,6.60
2018-07-23T10:30:26.989Z,9.67
2018-07-23T10:32:55.413Z,7.03
2018-07-23T10:35:23.838Z,6.53
2018-07-23T10:37:52.273Z,5.30
2018-07-23T10:40:20.745Z,5.43
2018-07-23T10:42:49.208Z,5.57
2018-07-23T10:45:17.676Z,5.50
2018-07-23T10:47:46.101Z,9.87
2018-07-23T10:50:14.540Z,5.07
2018-07-23T10:52:43.160Z,5.40
2018-07-23T10:55:11.620Z,5.13
2018-07-23T10:57:40.085Z,6.07
2018-07-23T11:00:08.724Z,8.60
2018-07-23T11:02:37.808Z,5.60
2018-07-23T11:05:07.540Z,5.80
2018-07-23T11:07:36.008Z,7.03
2018-07-23T11:10:04.854Z,5.90
2018-07-23T11:12:33.364Z,5.77
2018-07-23T11:15:01.798Z,6.70
2018-07-23T11:17:30.237Z,7.40
2018-07-23T11:19:58.677Z,6.67
2018-07-23T11:22:27.157Z,7.33
2018-07-23T11:24:55.686Z,6.47
2018-07-23T11:27:24.045Z,12.97
2018-07-23T11:29:52.494Z,11.17
2018-07-23T11:32:20.937Z,7.83
2018-07-23T11:34:49.424Z,7.13
2018-07-23T11:37:17.858Z,11.07
2018-07-23T11:39:46.304Z,7.37
2018-07-23T11:42:14.757Z,7.07
2018-07-23T11:44:43.208Z,6.53
2018-07-23T11:47:11.734Z,10.00
2018-07-23T11:49:40.164Z,10.47
2018-07-23T11:52:14.358Z,8.13
2018-07-23T11:54:37.108Z,8.40
2018-07-23T11:57:06.334Z,7.77
2018-07-23T11:59:34.476Z,7.83
2018-07-23T12:02:02.960Z,5.40
2018-07-23T12:04:31.455Z,8.53
2018-07-23T12:06:59.906Z,5.12
2018-07-23T12:09:28.356Z,8.85
2018-07-23T12:11:56.845Z,5.43
2018-07-23T12:14:25.321Z,9.40
2018-07-23T12:16:53.751Z,6.00
2018-07-23T12:19:22.197Z,5.30
2018-07-23T12:21:50.656Z,5.63
2018-07-23T12:24:19.110Z,10.13
2018-07-23T12:26:47.541Z,8.03
2018-07-23T12:29:15.997Z,8.87
2018-07-23T12:31:44.452Z,7.97
2018-07-23T12:34:12.905Z,5.17
2018-07-23T12:36:41.395Z,6.47
2018-07-23T12:39:11.624Z,7.97
2018-07-23T12:41:40.245Z,7.10
2018-07-23T12:44:09.070Z,7.10
2018-07-23T12:46:37.546Z,5.60
2018-07-23T12:49:05.986Z,5.50
2018-07-23T12:51:34.448Z,7.33
2018-07-23T12:54:02.933Z,7.67
2018-07-23T12:56:31.372Z,6.53
2018-07-23T12:58:59.827Z,5.40
2018-07-23T13:01:28.281Z,6.70
2018-07-23T13:03:56.744Z,6.30
2018-07-23T13:06:25.948Z,5.67
2018-07-23T13:08:54.389Z,5.33
2018-07-23T13:11:22.844Z,7.03
2018-07-23T13:13:51.309Z,5.00
2018-07-23T13:16:19.889Z,4.93
2018-07-23T13:18:48.376Z,7.03
2018-07-23T13:21:16.836Z,5.77
2018-07-23T13:23:45.284Z,5.07
2018-07-23T13:26:13.753Z,4.53
2018-07-23T13:28:42.232Z,5.77
2018-07-23T13:31:10.712Z,6.50
2018-07-23T13:33:39.204Z,5.17
2018-07-23T13:36:07.717Z,6.53
2018-07-23T13:38:36.681Z,4.97
2018-07-23T13:41:05.188Z,4.77
2018-07-23T13:43:33.617Z,6.60
2018-07-23T13:46:02.084Z,6.33
2018-07-23T13:48:30.573Z,5.33
2018-07-23T13:50:59.342Z,5.33
2018-07-23T13:53:27.764Z,5.40
2018-07-23T13:55:56.971Z,5.87
2018-07-23T13:58:25.436Z,3.80
2018-07-23T14:00:54.052Z,5.53
2018-07-23T14:03:22.888Z,4.30
2018-07-23T14:05:51.357Z,6.10
2018-07-23T14:08:19.796Z,5.60
2018-07-23T14:10:48.241Z,6.50
2018-07-23T14:13:16.970Z,5.23
2018-07-23T14:15:45.391Z,7.47
2018-07-23T14:18:13.881Z,4.50
2018-07-23T14:20:42.308Z,4.30
2018-07-23T14:23:10.750Z,4.77
2018-07-23T14:25:39.188Z,4.23
2018-07-23T14:28:07.720Z,4.77
2018-07-23T14:30:36.197Z,4.30
2018-07-23T14:33:04.648Z,4.90
2018-07-23T14:35:33.081Z,5.53
2018-07-23T14:38:01.520Z,4.70
2018-07-23T14:40:29.957Z,5.47
2018-07-23T14:42:58.409Z,4.83
2018-07-23T14:45:26.848Z,4.77
2018-07-23T14:47:55.316Z,4.37
2018-07-23T14:50:24.356Z,5.07
2018-07-23T14:52:52.788Z,6.20
2018-07-23T14:55:21.288Z,4.53
2018-07-23T14:57:49.753Z,5.70
2018-07-23T15:00:18.181Z,4.10
2018-07-23T15:02:46.608Z,5.50
2018-07-23T15:05:15.057Z,4.73
2018-07-23T15:07:43.477Z,4.80
2018-07-23T15:10:12.048Z,5.07
2018-07-23T15:12:40.589Z,5.33
2018-07-23T15:15:09.013Z,6.07
2018-07-23T15:17:39.268Z,3.97
2018-07-23T15:20:07.760Z,3.97
2018-07-23T15:22:36.208Z,5.30
2018-07-23T15:25:04.726Z,5.37
2018-07-23T15:27:33.171Z,8.03
2018-07-23T15:30:01.610Z,4.43
2018-07-23T15:32:30.021Z,5.40
2018-07-23T15:34:58.489Z,26.77
2018-07-23T15:37:26.924Z,7.93
2018-07-23T15:39:55.369Z,5.03
2018-07-23T15:42:23.848Z,4.77
2018-07-23T15:44:52.420Z,4.47
2018-07-23T15:47:20.744Z,3.93
2018-07-23T15:49:49.276Z,4.40
2018-07-23T15:52:17.732Z,5.07
2018-07-23T15:54:46.176Z,4.07
2018-07-23T15:57:14.648Z,3.60
2018-07-23T15:59:43.181Z,4.53
2018-07-23T16:02:11.671Z,4.93
2018-07-23T16:04:40.097Z,3.93
2018-07-23T16:07:08.704Z,19.73
2018-07-23T16:09:37.124Z,5.57
2018-07-23T16:12:05.717Z,3.50
2018-07-23T16:14:34.156Z,3.73
2018-07-23T16:17:02.585Z,4.27
2018-07-23T16:19:31.029Z,4.00
2018-07-23T16:21:59.487Z,3.53
2018-07-23T16:24:27.952Z,4.43
2018-07-23T16:26:57.093Z,3.50
2018-07-23T16:29:25.537Z,4.37
2018-07-23T16:31:54.030Z,3.97
2018-07-23T16:34:22.518Z,5.20
2018-07-23T16:36:50.941Z,4.10
2018-07-23T16:39:19.400Z,4.27
2018-07-23T16:41:47.816Z,3.80
2018-07-23T16:44:16.268Z,4.27
2018-07-23T16:46:44.736Z,4.07
2018-07-23T16:49:13.154Z,4.10
2018-07-23T16:51:42.017Z,5.93
2018-07-23T16:54:10.537Z,4.20
2018-07-23T16:56:38.967Z,4.03
2018-07-23T16:59:07.444Z,4.03
2018-07-23T17:01:35.856Z,5.53
2018-07-23T17:04:04.331Z,4.90
2018-07-23T17:06:32.760Z,4.40
2018-07-23T17:09:01.203Z,3.80
2018-07-23T17:11:29.640Z,4.13
2018-07-23T17:13:58.085Z,4.60
2018-07-23T17:16:26.493Z,5.60
2018-07-23T17:18:54.941Z,4.50
2018-07-23T17:21:23.365Z,4.33
2018-07-23T17:23:51.807Z,4.27
2018-07-23T17:26:20.232Z,4.73
2018-07-23T17:28:48.672Z,6.60
2018-07-23T17:31:17.092Z,4.43
2018-07-23T17:33:45.565Z,5.37
2018-07-23T17:36:14.045Z,4.60
2018-07-23T17:38:42.497Z,4.03
2018-07-23T17:41:10.880Z,5.03
2018-07-23T17:43:39.320Z,5.37
2018-07-23T17:46:07.844Z,5.97
2018-07-23T17:48:36.308Z,4.37
2018-07-23T17:51:04.731Z,4.67
2018-07-23T17:53:33.160Z,6.30
2018-07-23T17:56:01.588Z,6.33
2018-07-23T17:58:30.044Z,4.53
2018-07-23T18:00:58.189Z,5.00
2018-07-23T18:03:26.653Z,4.30
2018-07-23T18:05:55.120Z,4.00
2018-07-23T18:08:23.571Z,6.53
2018-07-23T18:10:52.109Z,4.50
2018-07-23T18:13:20.610Z,4.60
2018-07-23T18:15:49.090Z,6.87
2018-07-23T18:18:17.212Z,5.50
2018-07-23T18:20:45.728Z,7.17
2018-07-23T18:23:14.317Z,8.63
2018-07-23T18:25:42.788Z,5.47
2018-07-23T18:28:11.376Z,4.33
2018-07-23T18:30:39.852Z,7.60
2018-07-23T18:33:08.425Z,6.00
2018-07-23T18:35:36.863Z,5.97
2018-07-23T18:38:05.430Z,4.93
2018-07-23T18:40:34.232Z,4.63
2018-07-23T18:43:02.732Z,8.87
2018-07-23T18:45:31.351Z,4.87
2018-07-23T18:48:02.368Z,5.87
2018-07-23T18:50:35.316Z,5.23
2018-07-23T18:53:03.925Z,6.27
2018-07-23T18:55:32.533Z,7.03
2018-07-23T18:58:01.013Z,8.30
2018-07-23T19:00:29.599Z,6.27
2018-07-23T19:03:00.964Z,5.10
2018-07-23T19:05:35.080Z,6.13
2018-07-23T19:08:05.705Z,5.20
2018-07-23T19:10:47.315Z,5.77
2018-07-23T19:13:17.944Z,5.97
2018-07-23T19:15:50.725Z,6.17
2018-07-23T19:18:19.501Z,6.83
2018-07-23T19:20:51.244Z,8.37
2018-07-23T19:23:23.929Z,8.40
2018-07-23T19:25:52.437Z,11.07
2018-07-23T19:28:20.909Z,10.57
2018-07-23T19:30:49.591Z,8.00
2018-07-23T19:33:18.090Z,9.27
2018-07-23T19:35:46.505Z,7.30
2018-07-23T19:38:14.956Z,8.07
2018-07-23T19:40:43.896Z,4.97
2018-07-23T19:43:12.397Z,6.17
2018-07-23T19:45:41.393Z,5.30
2018-07-23T19:48:09.849Z,5.63
2018-07-23T19:50:38.348Z,6.57
2018-07-23T19:53:06.792Z,4.63
2018-07-23T19:55:35.248Z,5.60
2018-07-23T19:58:03.725Z,5.80
2018-07-23T20:00:34.380Z,6.43
2018-07-23T20:03:02.825Z,9.97
2018-07-23T20:05:31.369Z,9.30
2018-07-23T20:07:59.796Z,7.07
2018-07-23T20:10:28.234Z,6.70
2018-07-23T20:12:56.677Z,6.13
2018-07-23T20:15:25.181Z,6.70
2018-07-23T20:17:53.605Z,6.13
2018-07-23T20:20:22.050Z,9.10
2018-07-23T20:22:50.492Z,7.83
2018-07-23T20:25:18.976Z,9.83
2018-07-23T20:27:47.427Z,6.43
2018-07-23T20:30:15.954Z,10.23
2018-07-23T20:32:44.776Z,5.67
2018-07-23T20:35:13.410Z,8.50
2018-07-23T20:37:41.860Z,8.40
2018-07-23T20:40:10.336Z,8.00
2018-07-23T20:42:38.813Z,6.77
2018-07-23T20:45:07.362Z,8.17
2018-07-23T20:47:35.793Z,5.93
2018-07-23T20:50:04.329Z,8.87
2018-07-23T20:52:32.756Z,8.27
2018-07-23T20:55:01.217Z,6.23
2018-07-23T20:57:29.672Z,8.17
2018-07-23T20:59:58.220Z,7.33
2018-07-23T21:02:26.658Z,5.93
2018-07-23T21:04:55.711Z,8.77
2018-07-23T21:07:24.137Z,4.97
2018-07-23T21:09:52.575Z,8.43
2018-07-23T21:12:21.033Z,8.40
2018-07-23T21:14:49.520Z,7.70
2018-07-23T21:17:17.968Z,7.47
2018-07-23T21:19:46.503Z,6.60
2018-07-23T21:22:15.012Z,8.63
2018-07-23T21:24:43.452Z,5.80
2018-07-23T21:27:11.936Z,7.40
2018-07-23T21:29:40.460Z,9.63
2018-07-23T21:32:09.129Z,7.53
2018-07-23T21:34:37.601Z,7.87
2018-07-23T21:37:06.052Z,6.67
2018-07-23T21:39:35.826Z,8.67
2018-07-23T21:42:04.345Z,7.40
2018-07-23T21:44:32.851Z,7.00
2018-07-23T21:47:01.353Z,6.10
2018-07-23T21:49:30.132Z,6.13
2018-07-23T21:51:58.975Z,7.50
2018-07-23T21:54:27.682Z,9.83
2018-07-23T21:56:56.153Z,8.87
2018-07-23T21:59:26.749Z,7.27
2018-07-23T22:01:55.272Z,8.73
2018-07-23T22:04:23.733Z,8.37
2018-07-23T22:06:52.199Z,8.33
2018-07-23T22:09:20.676Z,8.63
2018-07-23T22:11:49.145Z,9.07
2018-07-23T22:14:17.557Z,6.67
2018-07-23T22:16:46.145Z,6.87
2018-07-23T22:19:15.119Z,7.53
2018-07-23T22:21:43.569Z,6.60
2018-07-23T22:24:12.077Z,7.20
2018-07-23T22:26:40.661Z,8.13
2018-07-23T22:29:09.141Z,7.10
2018-07-23T22:31:37.590Z,7.63
2018-07-23T22:34:06.436Z,7.90
2018-07-23T22:36:34.932Z,9.67
2018-07-23T22:39:03.564Z,7.87
2018-07-23T22:41:32.005Z,9.67
2018-07-23T22:44:00.443Z,6.83
2018-07-23T22:46:29.080Z,7.27
2018-07-23T22:48:58.200Z,7.90
2018-07-23T22:51:26.780Z,9.57
2018-07-23T22:53:55.306Z,8.87
2018-07-23T22:56:23.836Z,7.33
2018-07-23T22:58:52.279Z,8.50
2018-07-23T23:01:20.969Z,7.27
2018-07-23T23:03:49.424Z,7.50
2018-07-23T23:06:18.141Z,7.33
2018-07-23T23:08:46.638Z,8.63
2018-07-23T23:11:14.806Z,7.30
2018-07-23T23:13:43.228Z,11.10
2018-07-23T23:16:11.720Z,8.77
2018-07-23T23:18:40.192Z,8.47
2018-07-23T23:21:08.713Z,10.00
2018-07-23T23:23:36.870Z,8.53
2018-07-23T23:26:05.404Z,9.87
2018-07-23T23:28:33.957Z,7.77
2018-07-23T23:31:02.845Z,13.40
2018-07-23T23:33:31.259Z,8.30
2018-07-23T23:35:59.776Z,9.43
2018-07-23T23:38:29.760Z,8.07
2018-07-23T23:40:58.301Z,10.97
2018-07-23T23:43:26.740Z,8.93
2018-07-23T23:45:55.208Z,7.90
2018-07-23T23:48:23.676Z,8.43
2018-07-23T23:50:52.164Z,7.87
2018-07-23T23:53:20.880Z,8.53
2018-07-23T23:55:49.364Z,7.90
2018-07-23T23:58:17.806Z,8.03
